Time;durP1;ratioP1;P1;durP2;ratioP2;P2;SDS_P1;SDS_P2;PMS_P1;PMS_P2;Temp;Humidity;BMP_temperature;BMP_pressure;BME280_temperature;BME280_humidity;BME280_pressure;Samples;Min_cycle;Max_cycle;Signal;HPM_P1;HPM_P2
2021/03/07 00:00:17;;;;;;;5.37;3.17;;;;;;;2.64;100.00;102873.66;5090467;28;20164;-77
2021/03/07 00:02:43;;;;;;;5.30;3.40;;;;;;;2.62;100.00;102870.22;5090685;28;20174;-76
2021/03/07 00:05:10;;;;;;;6.93;3.40;;;;;;;2.64;100.00;102876.25;5090748;28;20493;-78
2021/03/07 00:07:36;;;;;;;7.53;3.80;;;;;;;2.59;100.00;102865.03;5090987;28;20420;-76
2021/03/07 00:10:05;;;;;;;6.70;3.73;;;;;;;2.54;100.00;102869.34;5087963;28;20908;-75
2021/03/07 00:12:30;;;;;;;5.90;3.30;;;;;;;2.48;100.00;102872.78;5086244;28;20159;-77
2021/03/07 00:14:56;;;;;;;7.70;4.10;;;;;;;2.47;100.00;102877.97;5090548;28;20452;-75
2021/03/07 00:17:21;;;;;;;7.67;4.07;;;;;;;2.52;100.00;102878.00;5074456;28;20675;-75
2021/03/07 00:19:47;;;;;;;6.37;3.10;;;;;;;2.45;100.00;102871.94;5071378;28;20160;-77
2021/03/07 00:22:12;;;;;;;6.83;4.43;;;;;;;2.39;100.00;102877.09;5070485;28;20196;-78
2021/03/07 00:24:38;;;;;;;9.43;3.87;;;;;;;2.35;100.00;102875.38;5070122;28;20269;-75
2021/03/07 00:27:03;;;;;;;7.10;3.30;;;;;;;2.36;100.00;102877.13;5082328;28;20168;-76
2021/03/07 00:29:29;;;;;;;6.90;3.70;;;;;;;2.36;100.00;102871.94;5090868;28;20172;-76
2021/03/07 00:31:54;;;;;;;5.17;3.17;;;;;;;2.35;100.00;102867.59;5091573;28;20159;-77
2021/03/07 00:34:20;;;;;;;5.87;4.33;;;;;;;2.36;100.00;102859.81;5081244;28;20172;-76
2021/03/07 00:36:46;;;;;;;5.50;3.50;;;;;;;2.44;100.00;102867.63;5074324;28;20243;-78
2021/03/07 00:39:12;;;;;;;5.57;3.77;;;;;;;2.42;100.00;102865.03;5074375;28;20559;-76
2021/03/07 00:41:37;;;;;;;5.27;3.70;;;;;;;2.41;100.00;102860.66;5073837;28;20208;-76
2021/03/07 00:44:08;;;;;;;6.70;3.73;;;;;;;2.32;100.00;102863.25;5074298;28;21066;-75
2021/03/07 00:46:34;;;;;;;6.37;3.83;;;;;;;2.26;100.00;102863.25;5087271;28;20182;-76
2021/03/07 00:48:59;;;;;;;6.90;3.80;;;;;;;2.33;100.00;102859.78;5076197;28;20418;-76
2021/03/07 00:51:25;;;;;;;5.90;3.60;;;;;;;2.35;100.00;102862.41;5074055;28;20233;-77
2021/03/07 00:53:51;;;;;;;5.93;3.93;;;;;;;2.42;100.00;102865.03;5074439;28;20243;-79
2021/03/07 00:56:16;;;;;;;5.10;3.50;;;;;;;2.39;100.00;102866.72;5074298;28;20188;-80
2021/03/07 00:58:42;;;;;;;7.10;3.57;;;;;;;2.33;100.00;102862.38;5074889;28;20924;-80
2021/03/07 01:01:07;;;;;;;7.47;3.90;;;;;;;2.36;100.00;102859.81;5092134;28;20596;-77
2021/03/07 01:03:33;;;;;;;6.10;3.70;;;;;;;2.35;100.00;102860.69;5076139;28;20179;-78
2021/03/07 01:05:58;;;;;;;6.20;3.37;;;;;;;2.43;100.00;102856.38;5073702;28;20171;-78
2021/03/07 01:08:24;;;;;;;6.10;3.70;;;;;;;2.41;100.00;102858.06;5073714;28;20247;-78
2021/03/07 01:10:49;;;;;;;6.13;3.50;;;;;;;2.46;100.00;102858.97;5075663;28;20174;-77
2021/03/07 01:13:17;;;;;;;6.00;3.40;;;;;;;2.53;100.00;102864.16;5093729;28;20634;-77
2021/03/07 01:15:43;;;;;;;6.07;3.70;;;;;;;2.50;100.00;102860.72;5088812;28;20199;-77
2021/03/07 01:18:08;;;;;;;7.70;3.93;;;;;;;2.51;100.00;102866.75;5073177;28;20398;-76
2021/03/07 01:20:37;;;;;;;6.13;3.80;;;;;;;2.48;100.00;102864.16;5073202;28;20395;-76
2021/03/07 01:23:03;;;;;;;7.23;3.70;;;;;;;2.59;100.00;102856.38;5073794;28;20172;-75
2021/03/07 01:25:31;;;;;;;6.60;4.10;;;;;;;2.51;100.00;102853.78;5073555;28;20896;-77
2021/03/07 01:27:58;;;;;;;8.30;4.00;;;;;;;2.58;100.00;102862.44;5072972;28;20175;-75
2021/03/07 01:30:24;;;;;;;7.83;4.53;;;;;;;2.61;100.00;102855.50;5074762;28;20609;-74
2021/03/07 01:32:50;;;;;;;7.07;4.30;;;;;;;2.55;100.00;102854.63;5088123;28;20505;-75
2021/03/07 01:35:17;;;;;;;7.00;4.00;;;;;;;2.55;100.00;102847.72;5092372;28;20511;-76
2021/03/07 01:37:43;;;;;;;7.20;4.60;;;;;;;2.48;100.00;102856.34;5090608;28;20164;-74
2021/03/07 01:40:11;;;;;;;7.60;3.27;;;;;;;2.52;100.00;102859.84;5092416;28;20441;-76
2021/03/07 01:42:41;;;;;;;7.40;4.60;;;;;;;2.52;100.00;102849.47;5086115;28;20227;-76
2021/03/07 01:45:08;;;;;;;4.83;3.20;;;;;;;2.59;100.00;102846.00;5055082;28;20425;-76
2021/03/07 01:47:34;;;;;;;6.80;3.80;;;;;;;2.66;100.00;102837.38;5076697;28;20429;-77
2021/03/07 01:50:02;;;;;;;10.40;4.60;;;;;;;2.69;100.00;102840.81;5091940;28;20963;-79
2021/03/07 01:52:27;;;;;;;6.60;4.30;;;;;;;2.70;100.00;102841.66;5091778;28;20414;-77
2021/03/07 01:54:53;;;;;;;6.30;4.23;;;;;;;2.73;100.00;102846.88;5091907;28;20989;-77
2021/03/07 01:57:21;;;;;;;7.27;4.20;;;;;;;2.77;100.00;102844.25;5087480;28;20515;-77
2021/03/07 01:59:50;;;;;;;7.23;3.90;;;;;;;2.81;100.00;102837.38;5071888;28;20627;-77
2021/03/07 02:02:16;;;;;;;4.97;3.30;;;;;;;2.86;100.00;102839.94;5071892;28;21031;-77
2021/03/07 02:04:41;;;;;;;6.93;4.10;;;;;;;2.87;100.00;102844.25;5070218;28;20418;-77
2021/03/07 02:07:07;;;;;;;6.93;4.03;;;;;;;2.88;100.00;102844.28;5081247;28;20318;-75
2021/03/07 02:09:33;;;;;;;6.40;4.10;;;;;;;2.88;100.00;102849.47;5091750;28;20176;-76
2021/03/07 02:11:59;;;;;;;11.33;6.60;;;;;;;2.87;100.00;102847.75;5091784;28;20240;-76
2021/03/07 02:14:28;;;;;;;13.43;5.90;;;;;;;2.89;100.00;102846.00;5091734;28;20398;-75
2021/03/07 02:16:54;;;;;;;6.07;4.07;;;;;;;2.91;100.00;102841.66;5084076;28;20539;-75
2021/03/07 02:19:25;;;;;;;7.30;4.13;;;;;;;2.87;100.00;102849.44;5092434;28;20775;-75
2021/03/07 02:21:56;;;;;;;5.67;3.47;;;;;;;2.95;100.00;102845.16;5091270;28;20398;-74
2021/03/07 02:24:22;;;;;;;5.00;3.80;;;;;;;2.87;100.00;102837.38;5065721;28;691959;-75
2021/03/07 02:26:50;;;;;;;8.40;4.07;;;;;;;2.95;100.00;102846.00;5093249;28;20552;-74
2021/03/07 02:29:18;;;;;;;5.20;3.30;;;;;;;2.97;100.00;102839.06;5091735;28;20160;-76
2021/03/07 02:31:53;;;;;;;6.07;3.80;;;;;;;2.96;100.00;102832.16;5091977;28;20483;-76
2021/03/07 02:34:30;;;;;;;6.20;3.90;;;;;;;2.96;100.00;102831.28;5093250;28;20953;-74
2021/03/07 02:37:00;;;;;;;9.30;3.80;;;;;;;2.92;100.00;102840.78;5092932;28;20429;-76
2021/03/07 02:39:31;;;;;;;6.80;3.90;;;;;;;2.94;100.00;102833.88;5093263;28;20406;-76
2021/03/07 02:42:04;;;;;;;5.60;3.70;;;;;;;2.98;100.00;102840.78;5092828;28;20429;-77
2021/03/07 02:44:34;;;;;;;6.00;3.30;;;;;;;2.95;100.00;102835.63;5092684;28;20920;-76
2021/03/07 02:47:00;;;;;;;9.03;4.00;;;;;;;2.97;100.00;102838.22;5092161;28;20390;-74
2021/03/07 02:49:27;;;;;;;6.93;4.00;;;;;;;2.92;100.00;102830.41;5092781;28;20484;-76
2021/03/07 02:51:55;;;;;;;7.07;3.30;;;;;;;2.87;100.00;102842.56;5092746;28;20467;-76
2021/03/07 02:54:23;;;;;;;8.80;3.70;;;;;;;2.88;100.00;102840.81;5091720;28;20405;-76
2021/03/07 02:56:52;;;;;;;5.77;3.67;;;;;;;2.86;100.00;102838.19;5092845;28;20487;-75
2021/03/07 02:59:22;;;;;;;5.60;3.30;;;;;;;2.96;100.00;102836.47;5082684;28;20430;-76
2021/03/07 03:01:54;;;;;;;7.00;4.20;;;;;;;2.87;100.00;102842.56;5072410;28;20852;-76
2021/03/07 03:04:21;;;;;;;5.70;3.47;;;;;;;2.86;100.00;102838.19;5092234;28;20489;-76
2021/03/07 03:06:48;;;;;;;5.40;3.40;;;;;;;2.80;100.00;102843.41;5091639;28;20410;-77
2021/03/07 03:09:16;;;;;;;5.60;3.70;;;;;;;2.86;100.00;102850.31;5091998;28;20417;-75
2021/03/07 03:11:42;;;;;;;7.37;3.60;;;;;;;2.75;100.00;102843.41;5092293;28;20402;-77
2021/03/07 03:14:16;;;;;;;6.63;3.83;;;;;;;2.82;100.00;102849.47;5086423;28;20506;-77
2021/03/07 03:16:53;;;;;;;8.47;3.53;;;;;;;2.78;100.00;102848.59;5073061;28;20673;-75
2021/03/07 03:19:21;;;;;;;6.70;4.20;;;;;;;2.79;100.00;102852.91;5072243;28;20410;-77
2021/03/07 03:21:47;;;;;;;6.53;4.00;;;;;;;2.71;100.00;102851.19;5078317;28;20425;-76
2021/03/07 03:24:12;;;;;;;6.07;4.53;;;;;;;2.65;100.00;102846.88;5092095;28;20911;-77
2021/03/07 03:26:38;;;;;;;7.90;3.67;;;;;;;2.67;100.00;102854.66;5090275;28;20226;-75
2021/03/07 03:29:05;;;;;;;7.13;3.67;;;;;;;2.72;100.00;102856.41;5071874;28;20161;-77
2021/03/07 03:31:32;;;;;;;7.00;4.00;;;;;;;2.81;100.00;102847.75;5070649;28;20493;-74
2021/03/07 03:33:58;;;;;;;5.53;3.60;;;;;;;2.80;100.00;102851.22;5087852;28;20809;-74
2021/03/07 03:36:24;;;;;;;5.73;3.60;;;;;;;2.79;100.00;102844.25;5071504;28;20450;-76
2021/03/07 03:38:54;;;;;;;5.50;3.37;;;;;;;2.68;100.00;102844.28;5071510;28;20414;-74
2021/03/07 03:41:24;;;;;;;7.40;3.47;;;;;;;2.78;100.00;102845.13;5073635;28;20697;-75
2021/03/07 03:43:53;;;;;;;9.50;5.67;;;;;;;2.68;100.00;102848.59;5071707;28;20403;-75
2021/03/07 03:46:20;;;;;;;7.33;3.83;;;;;;;2.73;100.00;102852.06;5071629;28;20395;-75
2021/03/07 03:48:53;;;;;;;5.70;3.13;;;;;;;2.66;100.00;102842.56;5071461;28;20405;-77
2021/03/07 03:51:19;;;;;;;6.50;4.30;;;;;;;2.63;100.00;102852.91;5071654;28;20383;-77
2021/03/07 03:53:47;;;;;;;7.00;3.80;;;;;;;2.73;100.00;102844.28;5073192;28;20436;-76
2021/03/07 03:56:17;;;;;;;5.47;3.50;;;;;;;2.61;100.00;102850.31;5071288;28;20494;-76
2021/03/07 03:58:43;;;;;;;9.00;3.43;;;;;;;2.59;100.00;102848.59;5071316;28;20402;-77
2021/03/07 04:01:10;;;;;;;8.20;3.90;;;;;;;2.73;100.00;102850.34;5083090;28;20408;-77
2021/03/07 04:03:37;;;;;;;7.63;4.27;;;;;;;2.79;100.00;102855.50;5090688;28;20398;-77
2021/03/07 04:06:03;;;;;;;7.37;4.83;;;;;;;2.76;100.00;102844.28;5090024;28;20408;-77
2021/03/07 04:08:29;;;;;;;8.00;4.30;;;;;;;2.73;100.00;102846.88;5091716;28;20915;-75
2021/03/07 04:10:56;;;;;;;7.17;4.50;;;;;;;2.73;100.00;102841.69;5089554;28;20394;-77
2021/03/07 04:13:27;;;;;;;10.30;5.33;;;;;;;2.83;100.00;102842.53;5071111;28;20165;-77
2021/03/07 04:15:56;;;;;;;8.03;5.30;;;;;;;2.77;100.00;102843.41;5071292;28;20458;-76
2021/03/07 04:18:27;;;;;;;8.60;5.80;;;;;;;2.83;100.00;102840.81;5076672;28;20904;-75
2021/03/07 04:20:54;;;;;;;9.20;5.30;;;;;;;2.64;100.00;102847.72;5091282;28;20401;-76
2021/03/07 04:23:20;;;;;;;14.13;6.27;;;;;;;2.60;100.00;102843.41;5091167;28;20481;-75
2021/03/07 04:25:46;;;;;;;8.73;5.53;;;;;;;2.58;100.00;102847.75;5091199;28;20441;-76
2021/03/07 04:28:12;;;;;;;7.03;5.07;;;;;;;2.61;100.00;102844.28;5086189;28;20395;-74
2021/03/07 04:30:38;;;;;;;9.50;5.77;;;;;;;2.56;100.00;102840.81;5070930;28;20425;-76
2021/03/07 04:33:05;;;;;;;9.53;6.33;;;;;;;2.46;100.00;102845.13;5070976;28;20399;-77
2021/03/07 04:35:31;;;;;;;9.90;5.57;;;;;;;2.49;100.00;102840.81;5070801;28;20192;-76
2021/03/07 04:38:02;;;;;;;8.80;5.70;;;;;;;2.52;100.00;102841.69;5089064;28;20543;-77
2021/03/07 04:40:28;;;;;;;9.50;5.87;;;;;;;2.45;100.00;102846.00;5091019;28;20810;-75
2021/03/07 04:42:54;;;;;;;16.50;6.63;;;;;;;2.48;100.00;102844.25;5091105;28;20915;-77
2021/03/07 04:45:20;;;;;;;11.00;6.00;;;;;;;2.66;100.00;102848.59;5091005;28;20168;-77
2021/03/07 04:47:46;;;;;;;8.50;5.70;;;;;;;2.66;100.00;102851.19;5085959;28;20429;-77
2021/03/07 04:50:13;;;;;;;8.23;4.70;;;;;;;2.75;100.00;102843.41;5072488;28;20520;-77
2021/03/07 04:52:39;;;;;;;9.37;5.77;;;;;;;2.67;100.00;102845.16;5090575;28;20398;-76
2021/03/07 04:55:06;;;;;;;13.20;5.63;;;;;;;2.70;100.00;102839.94;5090826;28;20514;-77
2021/03/07 04:57:31;;;;;;;8.17;5.57;;;;;;;2.81;100.00;102837.38;5090698;28;20444;-77
2021/03/07 04:59:57;;;;;;;12.63;5.97;;;;;;;2.84;100.00;102839.06;5089088;28;20504;-78
2021/03/07 05:02:22;;;;;;;9.30;5.77;;;;;;;2.72;100.00;102838.22;5088230;28;20187;-75
2021/03/07 05:04:48;;;;;;;8.40;5.40;;;;;;;2.74;100.00;102831.31;5089331;28;20167;-77
2021/03/07 05:07:13;;;;;;;8.77;5.70;;;;;;;2.79;100.00;102834.75;5071425;28;20899;-77
2021/03/07 05:09:39;;;;;;;11.80;6.50;;;;;;;2.76;100.00;102831.28;5069635;28;20155;-77
2021/03/07 05:12:05;;;;;;;8.53;5.17;;;;;;;2.73;100.00;102828.72;5070003;28;20168;-77
2021/03/07 05:14:30;;;;;;;17.03;6.30;;;;;;;2.72;100.00;102834.75;5070399;28;20623;-77
2021/03/07 05:16:56;;;;;;;11.87;5.53;;;;;;;2.91;100.00;102833.88;5070579;28;20468;-77
2021/03/07 05:19:22;;;;;;;14.03;6.40;;;;;;;3.01;100.00;102834.72;5074036;28;20617;-75
2021/03/07 05:21:47;;;;;;;16.13;7.80;;;;;;;2.94;100.00;102839.06;5074913;28;20192;-78
2021/03/07 05:24:13;;;;;;;13.17;8.93;;;;;;;3.06;100.00;102839.06;5074351;28;20214;-78
2021/03/07 05:26:38;;;;;;;19.67;11.87;;;;;;;3.10;100.00;102849.41;5075830;28;20714;-78
2021/03/07 05:29:04;;;;;;;18.27;10.43;;;;;;;3.29;100.00;102854.59;5094121;28;20156;-78
2021/03/07 05:31:29;;;;;;;21.90;11.50;;;;;;;3.30;100.00;102855.44;5094399;28;20207;-76
2021/03/07 05:33:55;;;;;;;21.03;11.77;;;;;;;3.25;100.00;102854.59;5092240;28;20642;-76
2021/03/07 05:36:20;;;;;;;20.50;11.70;;;;;;;3.42;100.00;102855.44;5088598;28;20238;-77
2021/03/07 05:38:46;;;;;;;15.63;9.60;;;;;;;3.44;100.00;102853.69;5073650;28;20207;-76
2021/03/07 05:41:12;;;;;;;17.23;9.00;;;;;;;3.52;100.00;102851.06;5072456;28;20224;-78
2021/03/07 05:43:39;;;;;;;19.03;11.40;;;;;;;3.52;100.00;102862.31;5073918;28;20155;-77
2021/03/07 05:46:05;;;;;;;19.43;10.80;;;;;;;3.51;100.00;102860.59;5073594;28;20407;-77
2021/03/07 05:48:31;;;;;;;18.97;10.83;;;;;;;3.69;100.00;102851.84;5074008;28;20410;-76
2021/03/07 05:50:56;;;;;;;18.03;10.33;;;;;;;3.71;100.00;102859.69;5073792;28;20863;-78
2021/03/07 05:53:23;;;;;;;14.10;9.40;;;;;;;3.66;100.00;102853.63;5073804;28;20164;-77
2021/03/07 05:55:50;;;;;;;20.40;12.43;;;;;;;3.50;100.00;102864.06;5073429;28;20180;-76
2021/03/07 05:58:17;;;;;;;35.73;13.50;;;;;;;3.48;100.00;102860.63;5073744;28;20391;-79
2021/03/07 06:00:42;;;;;;;15.47;10.37;;;;;;;3.53;100.00;102864.03;5073229;28;20460;-75
2021/03/07 06:03:08;;;;;;;13.80;7.50;;;;;;;3.58;100.00;102864.03;5073232;28;20407;-77
2021/03/07 06:05:34;;;;;;;12.47;8.07;;;;;;;3.60;100.00;102873.56;5073779;28;20165;-78
2021/03/07 06:08:00;;;;;;;11.43;7.47;;;;;;;3.61;100.00;102870.06;5072969;28;20164;-77
2021/03/07 06:10:28;;;;;;;12.30;7.50;;;;;;;3.64;100.00;102878.75;5073344;28;20456;-77
2021/03/07 06:12:57;;;;;;;13.50;7.90;;;;;;;3.70;100.00;102879.56;5072859;28;20165;-77
2021/03/07 06:15:22;;;;;;;13.23;8.70;;;;;;;3.68;100.00;102883.06;5092081;28;20446;-77
2021/03/07 06:17:48;;;;;;;14.80;8.27;;;;;;;3.71;100.00;102880.47;5093339;28;20398;-77
2021/03/07 06:20:18;;;;;;;17.63;8.83;;;;;;;3.72;100.00;102880.47;5093191;28;20156;-78
2021/03/07 06:23:00;;;;;;;7.30;5.50;;;;;;;3.75;100.00;102872.63;5083648;28;20618;-76
2021/03/07 06:25:27;;;;;;;8.00;5.20;;;;;;;3.82;100.00;102870.88;5088061;28;20445;-76
2021/03/07 06:27:53;;;;;;;14.80;7.27;;;;;;;3.75;100.00;102866.56;5090719;28;20398;-77
2021/03/07 06:30:24;;;;;;;9.93;6.37;;;;;;;3.84;100.00;102861.31;5088873;28;20422;-74
2021/03/07 06:32:52;;;;;;;16.80;8.37;;;;;;;3.89;100.00;102855.25;5091067;28;20394;-75
2021/03/07 06:35:29;;;;;;;11.30;6.60;;;;;;;4.01;100.00;102853.47;5091518;28;20454;-74
2021/03/07 06:38:01;;;;;;;13.47;7.70;;;;;;;4.05;100.00;102850.81;5086397;28;20407;-78
2021/03/07 06:40:33;;;;;;;14.43;8.97;;;;;;;4.00;100.00;102859.50;5071738;28;20426;-75
2021/03/07 06:43:00;;;;;;;10.40;6.37;;;;;;;4.30;100.00;102850.66;5078525;28;20402;-75
2021/03/07 06:45:38;;;;;;;13.17;7.40;;;;;;;4.41;100.00;102852.34;5091423;28;20393;-73
2021/03/07 06:48:04;;;;;;;18.77;7.83;;;;;;;4.51;100.00;102849.66;5092111;28;20394;-77
2021/03/07 06:50:30;;;;;;;17.73;10.97;;;;;;;4.48;100.00;102850.56;5090859;28;20428;-75
2021/03/07 06:52:57;;;;;;;8.70;5.23;;;;;;;4.44;100.00;102856.66;5073422;28;20792;-78
2021/03/07 06:55:41;;;;;;;5.30;3.50;;;;;;;4.41;100.00;102856.69;5091498;28;20492;-77
2021/03/07 06:58:16;;;;;;;12.97;8.03;;;;;;;4.62;100.00;102856.53;5091048;28;20425;-74
2021/03/07 07:00:43;;;;;;;13.70;7.23;;;;;;;4.60;100.00;102860.00;5090928;28;20398;-74
2021/03/07 07:03:14;;;;;;;14.10;5.50;;;;;;;4.56;100.00;102851.38;5071616;28;20407;-76
2021/03/07 07:05:45;;;;;;;12.27;5.53;;;;;;;4.42;100.00;102856.66;5083544;28;20555;-76
2021/03/07 07:08:13;;;;;;;6.90;5.47;;;;;;;4.50;100.00;102850.53;5090469;28;20410;-76
2021/03/07 07:10:53;;;;;;;11.17;7.13;;;;;;;4.67;100.00;102851.28;5090792;28;20564;-76
2021/03/07 07:13:19;;;;;;;10.50;6.70;;;;;;;4.71;100.00;102847.78;5071573;28;20431;-76
2021/03/07 07:16:03;;;;;;;10.73;7.60;;;;;;;4.67;100.00;102848.66;5070676;28;20526;-77
2021/03/07 07:18:37;;;;;;;13.17;7.60;;;;;;;4.87;100.00;102841.56;5070317;28;20391;-76
2021/03/07 07:21:05;;;;;;;13.47;8.17;;;;;;;5.04;100.00;102836.19;5076564;28;20879;-75
2021/03/07 07:23:31;;;;;;;10.93;6.60;;;;;;;4.95;100.00;102831.94;5089942;28;20394;-77
2021/03/07 07:25:57;;;;;;;8.67;5.30;;;;;;;4.83;100.00;102834.63;5081391;28;20458;-74
2021/03/07 07:28:25;;;;;;;17.60;8.70;;;;;;;4.95;100.00;102831.06;5090048;28;20777;-75
2021/03/07 07:30:59;;;;;;;15.43;8.93;;;;;;;5.22;100.00;102828.19;5068916;28;20434;-76
2021/03/07 07:34:00;;;;;;;14.63;8.87;;;;;;;5.45;100.00;102822.72;5080176;28;21006;-74
2021/03/07 07:37:11;;;;;;;13.10;8.53;;;;;;;5.67;100.00;102822.44;5053198;28;20470;-76
2021/03/07 07:39:38;;;;;;;8.63;5.83;;;;;;;5.79;100.00;102817.94;5040575;28;20449;-78
2021/03/07 07:42:21;;;;;;;9.73;6.73;;;;;;;5.62;100.00;102819.06;5069752;28;20464;-77
2021/03/07 07:44:47;;;;;;;14.43;7.67;;;;;;;5.34;100.00;102818.50;5070924;28;20497;-77
2021/03/07 07:47:13;;;;;;;11.20;6.80;;;;;;;5.37;100.00;102806.31;5070342;28;20402;-77
2021/03/07 07:49:49;;;;;;;9.60;5.47;;;;;;;5.55;100.00;102811.31;5070227;28;20493;-76
2021/03/07 07:52:21;;;;;;;11.47;6.63;;;;;;;5.96;100.00;102809.91;5069823;28;20409;-78
2021/03/07 07:54:50;;;;;;;10.60;5.70;;;;;;;6.28;100.00;102801.63;5069908;28;20414;-76
2021/03/07 07:57:41;;;;;;;8.23;5.97;;;;;;;6.26;93.89;102792.94;5070029;28;20838;-77
2021/03/07 08:00:42;;;;;;;8.57;5.30;;;;;;;6.55;95.50;102791.63;5070335;28;20877;-77
2021/03/07 08:03:33;;;;;;;9.47;5.80;;;;;;;6.72;92.40;102781.72;5069871;28;20413;-77
2021/03/07 08:06:07;;;;;;;8.67;5.63;;;;;;;6.61;87.90;102781.06;5051854;28;20920;-77
2021/03/07 08:08:34;;;;;;;8.57;4.83;;;;;;;6.59;89.92;102780.25;5070219;28;20403;-78
2021/03/07 08:11:01;;;;;;;7.33;5.13;;;;;;;6.38;89.83;102774.47;5070409;28;20407;-78
2021/03/07 08:13:26;;;;;;;15.47;6.23;;;;;;;6.56;88.17;102773.31;5069358;28;20452;-78
2021/03/07 08:15:56;;;;;;;11.60;6.60;;;;;;;6.58;88.08;102768.06;5069913;28;20458;-77
2021/03/07 08:18:23;;;;;;;11.73;6.00;;;;;;;6.28;89.72;102767.69;5069123;28;20246;-77
2021/03/07 08:20:52;;;;;;;14.20;6.13;;;;;;;6.73;86.26;102767.81;5069740;28;20474;-77
2021/03/07 08:23:19;;;;;;;9.17;6.50;;;;;;;7.17;83.79;102761.72;5069831;28;20456;-77
2021/03/07 08:25:50;;;;;;;10.80;5.30;;;;;;;7.27;82.70;102758.94;5078736;28;21041;-76
2021/03/07 08:28:28;;;;;;;9.20;5.53;;;;;;;7.12;83.11;102753.13;5088537;28;20456;-78
2021/03/07 08:31:25;;;;;;;9.00;5.10;;;;;;;7.40;82.55;102755.16;5083916;28;20418;-73
2021/03/07 08:33:51;;;;;;;6.67;4.70;;;;;;;7.73;81.14;102756.22;5075112;28;20430;-75
2021/03/07 08:36:24;;;;;;;8.80;5.40;;;;;;;8.03;79.52;102752.03;5087047;28;20963;-78
2021/03/07 08:38:53;;;;;;;7.93;4.60;;;;;;;8.13;80.58;102747.41;5074428;28;20165;-78
2021/03/07 08:41:33;;;;;;;6.20;4.00;;;;;;;8.30;77.35;102750.47;5088214;28;20486;-78
2021/03/07 08:44:09;;;;;;;6.80;3.77;;;;;;;7.95;75.92;102741.72;5084509;28;20452;-77
2021/03/07 08:46:40;;;;;;;31.23;13.43;;;;;;;7.56;77.43;102742.59;5083411;28;20520;-77
2021/03/07 08:49:10;;;;;;;9.37;4.90;;;;;;;7.74;77.78;102742.22;5089675;28;20397;-76
2021/03/07 08:51:38;;;;;;;7.63;5.87;;;;;;;8.03;78.57;102729.31;5070408;28;20414;-76
2021/03/07 08:54:08;;;;;;;7.67;3.87;;;;;;;8.28;78.16;102723.47;5080187;28;20402;-78
2021/03/07 08:56:36;;;;;;;4.90;3.53;;;;;;;8.09;76.33;102722.22;5091247;28;20441;-75
2021/03/07 08:59:02;;;;;;;7.43;3.63;;;;;;;8.20;73.96;102714.97;5093416;28;20394;-76
2021/03/07 09:01:29;;;;;;;7.87;3.97;;;;;;;8.11;73.88;102709.97;5087799;28;20436;-79
2021/03/07 09:03:59;;;;;;;6.07;3.93;;;;;;;8.17;72.26;102708.06;5090167;28;20160;-76
2021/03/07 09:06:30;;;;;;;7.00;3.70;;;;;;;8.30;72.48;102705.97;5104990;28;20406;-76
2021/03/07 09:09:20;;;;;;;5.70;4.17;;;;;;;8.08;75.02;102703.00;5093242;28;20401;-77
2021/03/07 09:11:57;;;;;;;12.53;4.43;;;;;;;8.18;74.91;102698.44;5087652;28;20410;-76
2021/03/07 09:14:38;;;;;;;8.13;4.30;;;;;;;8.36;76.17;102695.38;5074646;28;20412;-77
2021/03/07 09:17:17;;;;;;;6.10;3.60;;;;;;;8.27;74.12;102693.81;5093385;28;20814;-75
2021/03/07 09:19:42;;;;;;;6.17;3.97;;;;;;;8.04;73.40;102683.91;5089409;28;20411;-76
2021/03/07 09:22:22;;;;;;;6.07;3.73;;;;;;;8.01;74.69;102680.50;5082447;28;20421;-76
2021/03/07 09:25:01;;;;;;;8.90;5.00;;;;;;;8.03;76.01;102674.34;5079874;28;20638;-75
2021/03/07 09:27:34;;;;;;;7.40;3.70;;;;;;;8.00;74.03;102671.78;5078111;28;20467;-77
2021/03/07 09:30:04;;;;;;;6.33;3.60;;;;;;;8.07;75.75;102673.38;5093034;28;20421;-77
2021/03/07 09:32:31;;;;;;;6.20;3.80;;;;;;;8.14;74.57;102674.06;5079461;28;20419;-75
2021/03/07 09:34:58;;;;;;;6.40;3.40;;;;;;;8.04;70.68;102662.13;5085144;28;20916;-77
2021/03/07 09:37:26;;;;;;;11.70;3.97;;;;;;;8.17;73.20;102660.06;5080911;28;20425;-77
2021/03/07 09:39:52;;;;;;;5.00;3.60;;;;;;;8.29;74.12;102657.09;5086465;28;20453;-77
2021/03/07 09:42:18;;;;;;;5.70;3.80;;;;;;;8.68;74.54;102663.06;5075180;28;20803;-79
2021/03/07 09:44:45;;;;;;;5.57;3.60;;;;;;;9.44;72.42;102655.56;5090229;28;20250;-75
2021/03/07 09:47:12;;;;;;;6.10;3.67;;;;;;;9.76;70.96;102655.47;5092211;28;20892;-78
2021/03/07 09:49:39;;;;;;;6.00;3.93;;;;;;;9.41;69.86;102642.56;5074760;28;20533;-76
2021/03/07 09:52:06;;;;;;;5.07;3.60;;;;;;;9.65;69.86;102634.81;5071976;28;20402;-78
2021/03/07 09:54:31;;;;;;;7.13;3.80;;;;;;;10.52;66.45;102631.88;5066377;28;20519;-77
2021/03/07 09:56:57;;;;;;;9.67;3.73;;;;;;;10.15;65.69;102629.66;5072409;28;20781;-77
2021/03/07 09:59:25;;;;;;;8.17;3.30;;;;;;;10.38;64.97;102621.84;5068877;28;20179;-76
2021/03/07 10:02:01;;;;;;;7.53;4.23;;;;;;;11.43;63.24;102617.00;5079811;28;20176;-75
2021/03/07 10:04:32;;;;;;;6.37;3.50;;;;;;;12.02;62.22;102604.97;5071892;28;20807;-74
2021/03/07 10:07:27;;;;;;;6.03;3.50;;;;;;;12.45;61.05;102610.03;5088144;28;20780;-74
2021/03/07 10:10:00;;;;;;;8.70;4.33;;;;;;;12.54;58.12;102602.66;5072120;28;20413;-76
2021/03/07 10:12:37;;;;;;;4.33;3.00;;;;;;;12.44;56.04;102595.16;5085500;28;20406;-75
2021/03/07 10:15:03;;;;;;;4.33;3.00;;;;;;;13.73;56.22;102584.66;5091750;28;20860;-75
2021/03/07 10:17:41;;;;;;;6.27;3.53;;;;;;;14.68;53.30;102577.94;5087361;28;20431;-76
2021/03/07 10:20:11;;;;;;;8.40;3.83;;;;;;;14.64;52.70;102572.88;5087882;28;20464;-76
2021/03/07 10:22:43;;;;;;;4.37;3.00;;;;;;;15.66;49.23;102566.25;5086788;28;20947;-76
2021/03/07 10:25:24;;;;;;;6.30;4.20;;;;;;;14.77;49.71;102565.13;5111905;28;20822;-78
2021/03/07 10:28:04;;;;;;;7.00;3.70;;;;;;;15.54;50.17;102563.34;5094974;28;20469;-77
2021/03/07 10:30:41;;;;;;;8.90;4.80;;;;;;;14.82;50.94;102561.31;5080755;28;20434;-76
2021/03/07 10:33:10;;;;;;;6.27;3.20;;;;;;;15.12;50.59;102555.22;5090767;28;20778;-75
2021/03/07 10:35:36;;;;;;;5.50;3.20;;;;;;;15.21;49.54;102536.16;5088814;28;20449;-75
2021/03/07 10:38:02;;;;;;;5.83;3.07;;;;;;;16.21;48.81;102544.38;5090495;28;20429;-78
2021/03/07 10:40:34;;;;;;;5.13;3.10;;;;;;;17.85;47.02;102529.31;5074128;28;20457;-75
2021/03/07 10:43:04;;;;;;;6.80;3.20;;;;;;;17.51;45.73;102528.03;5074528;28;20168;-72
2021/03/07 10:45:31;;;;;;;5.60;3.00;;;;;;;18.02;44.79;102524.50;5077376;28;20431;-73
2021/03/07 10:48:06;;;;;;;4.77;2.63;;;;;;;16.58;45.85;102522.56;5073501;28;20418;-74
2021/03/07 10:50:33;;;;;;;4.60;2.80;;;;;;;16.06;46.65;102519.66;5079528;28;20776;-73
2021/03/07 10:52:59;;;;;;;7.07;3.30;;;;;;;17.15;46.09;102503.84;5077555;28;20452;-75
2021/03/07 10:55:25;;;;;;;5.97;3.80;;;;;;;18.21;44.78;102510.78;5081894;28;20454;-75
2021/03/07 10:57:51;;;;;;;6.60;3.97;;;;;;;19.00;43.00;102498.00;5078015;28;20300;-75
2021/03/07 11:00:18;;;;;;;11.30;4.73;;;;;;;18.98;42.56;102490.13;5090832;28;20492;-76
2021/03/07 11:02:44;;;;;;;11.03;3.83;;;;;;;18.47;42.63;102489.44;5089874;28;20423;-77
2021/03/07 11:05:14;;;;;;;6.10;4.00;;;;;;;17.70;43.73;102484.19;5090548;28;20398;-76
2021/03/07 11:07:43;;;;;;;7.27;4.17;;;;;;;18.00;43.54;102486.53;5090275;28;20417;-77
2021/03/07 11:10:12;;;;;;;5.17;3.80;;;;;;;17.96;43.42;102474.41;5089807;28;20456;-77
2021/03/07 11:12:38;;;;;;;7.37;3.80;;;;;;;19.18;42.25;102461.13;5090080;28;20413;-77
2021/03/07 11:15:05;;;;;;;5.07;3.27;;;;;;;19.40;40.68;102459.38;5084479;28;20411;-77
2021/03/07 11:17:31;;;;;;;4.80;3.07;;;;;;;20.40;39.78;102448.88;5081609;28;20417;-77
2021/03/07 11:19:56;;;;;;;6.40;4.30;;;;;;;19.06;40.81;102450.44;5089146;28;20413;-75
2021/03/07 11:22:22;;;;;;;6.60;2.80;;;;;;;17.99;41.35;102452.91;5090225;28;20540;-75
2021/03/07 11:24:48;;;;;;;5.60;2.70;;;;;;;17.84;40.50;102448.69;5089063;28;20219;-75
2021/03/07 11:27:14;;;;;;;5.23;2.47;;;;;;;19.07;38.76;102440.63;5089342;28;20263;-73
2021/03/07 11:29:39;;;;;;;4.70;2.90;;;;;;;18.99;39.18;102435.88;5090025;28;20577;-82
2021/03/07 11:32:05;;;;;;;4.43;2.20;;;;;;;18.26;39.52;102430.59;5090236;28;20180;-79